sensor_id;sensor_type;location;lat;lon;timestamp;P1;durP1;ratioP1;P2;durP2;ratioP2
18857;SDS011;9558;50.178;8.370;2023-04-28T00:02:36;7.18;;;1.42;;
18857;SDS011;9558;50.178;8.370;2023-04-28T00:05:23;1.50;;;0.95;;
18857;SDS011;9558;50.178;8.370;2023-04-28T00:08:10;3.80;;;1.17;;
18857;SDS011;9558;50.178;8.370;2023-04-28T00:10:56;1.25;;;1.10;;
18857;SDS011;9558;50.178;8.370;2023-04-28T00:13:43;1.40;;;1.23;;
18857;SDS011;9558;50.178;8.370;2023-04-28T00:16:30;1.95;;;1.30;;
18857;SDS011;9558;50.178;8.370;2023-04-28T00:19:18;1.35;;;1.02;;
18857;SDS011;9558;50.178;8.370;2023-04-28T00:22:05;4.35;;;1.10;;
18857;SDS011;9558;50.178;8.370;2023-04-28T00:24:52;4.25;;;1.27;;
18857;SDS011;9558;50.178;8.370;2023-04-28T00:27:39;1.85;;;0.85;;
18857;SDS011;9558;50.178;8.370;2023-04-28T00:30:25;3.47;;;1.00;;
18857;SDS011;9558;50.178;8.370;2023-04-28T00:33:12;3.13;;;1.00;;
18857;SDS011;9558;50.178;8.370;2023-04-28T00:36:00;1.63;;;1.08;;
18857;SDS011;9558;50.178;8.370;2023-04-28T00:38:47;2.97;;;1.02;;
18857;SDS011;9558;50.178;8.370;2023-04-28T00:41:34;1.10;;;0.90;;
18857;SDS011;9558;50.178;8.370;2023-04-28T00:44:21;1.40;;;1.10;;
18857;SDS011;9558;50.178;8.370;2023-04-28T00:47:08;2.55;;;1.13;;
18857;SDS011;9558;50.178;8.370;2023-04-28T00:49:55;2.17;;;1.05;;
18857;SDS011;9558;50.178;8.370;2023-04-28T00:52:43;1.33;;;0.77;;
18857;SDS011;9558;50.178;8.370;2023-04-28T00:55:30;2.95;;;0.90;;
18857;SDS011;9558;50.178;8.370;2023-04-28T00:58:19;5.68;;;1.20;;
18857;SDS011;9558;50.178;8.370;2023-04-28T01:01:06;1.92;;;1.15;;
18857;SDS011;9558;50.178;8.370;2023-04-28T01:03:54;2.17;;;0.90;;
18857;SDS011;9558;50.178;8.370;2023-04-28T01:06:41;1.33;;;0.77;;
18857;SDS011;9558;50.178;8.370;2023-04-28T01:09:30;0.80;;;0.70;;
18857;SDS011;9558;50.178;8.370;2023-04-28T01:12:17;3.95;;;0.90;;
18857;SDS011;9558;50.178;8.370;2023-04-28T01:15:04;1.33;;;0.80;;
18857;SDS011;9558;50.178;8.370;2023-04-28T01:17:53;1.10;;;1.00;;
18857;SDS011;9558;50.178;8.370;2023-04-28T01:20:40;2.35;;;1.10;;
18857;SDS011;9558;50.178;8.370;2023-04-28T01:23:27;1.00;;;0.80;;
18857;SDS011;9558;50.178;8.370;2023-04-28T01:26:15;1.33;;;0.82;;
18857;SDS011;9558;50.178;8.370;2023-04-28T01:29:02;2.58;;;0.77;;
18857;SDS011;9558;50.178;8.370;2023-04-28T01:31:49;2.40;;;1.23;;
18857;SDS011;9558;50.178;8.370;2023-04-28T01:34:35;2.95;;;1.48;;
18857;SDS011;9558;50.178;8.370;2023-04-28T01:37:22;5.65;;;1.20;;
18857;SDS011;9558;50.178;8.370;2023-04-28T01:40:10;2.13;;;1.10;;
18857;SDS011;9558;50.178;8.370;2023-04-28T01:42:59;1.58;;;0.93;;
18857;SDS011;9558;50.178;8.370;2023-04-28T01:45:45;2.00;;;1.33;;
18857;SDS011;9558;50.178;8.370;2023-04-28T01:48:32;0.95;;;0.90;;
18857;SDS011;9558;50.178;8.370;2023-04-28T01:51:19;4.00;;;1.10;;
18857;SDS011;9558;50.178;8.370;2023-04-28T01:54:06;1.20;;;0.75;;
18857;SDS011;9558;50.178;8.370;2023-04-28T01:56:52;9.13;;;1.73;;
18857;SDS011;9558;50.178;8.370;2023-04-28T01:59:40;2.17;;;1.38;;
18857;SDS011;9558;50.178;8.370;2023-04-28T02:02:27;4.68;;;1.40;;
18857;SDS011;9558;50.178;8.370;2023-04-28T02:05:14;2.35;;;1.38;;
18857;SDS011;9558;50.178;8.370;2023-04-28T02:08:01;6.82;;;1.52;;
18857;SDS011;9558;50.178;8.370;2023-04-28T02:10:48;1.33;;;1.23;;
18857;SDS011;9558;50.178;8.370;2023-04-28T02:13:35;2.42;;;1.55;;
18857;SDS011;9558;50.178;8.370;2023-04-28T02:16:23;4.07;;;1.80;;
18857;SDS011;9558;50.178;8.370;2023-04-28T02:19:10;1.88;;;1.30;;
18857;SDS011;9558;50.178;8.370;2023-04-28T02:21:57;2.22;;;1.38;;
18857;SDS011;9558;50.178;8.370;2023-04-28T02:24:43;2.45;;;1.58;;
18857;SDS011;9558;50.178;8.370;2023-04-28T02:27:30;3.30;;;1.50;;
18857;SDS011;9558;50.178;8.370;2023-04-28T02:30:17;1.92;;;1.35;;
18857;SDS011;9558;50.178;8.370;2023-04-28T02:33:05;2.22;;;1.10;;
18857;SDS011;9558;50.178;8.370;2023-04-28T02:35:57;6.05;;;1.20;;
18857;SDS011;9558;50.178;8.370;2023-04-28T02:38:44;2.90;;;1.75;;
18857;SDS011;9558;50.178;8.370;2023-04-28T02:41:30;1.75;;;1.20;;
18857;SDS011;9558;50.178;8.370;2023-04-28T02:44:19;1.63;;;1.35;;
18857;SDS011;9558;50.178;8.370;2023-04-28T02:47:06;4.20;;;1.17;;
18857;SDS011;9558;50.178;8.370;2023-04-28T02:49:54;4.38;;;1.40;;
18857;SDS011;9558;50.178;8.370;2023-04-28T02:52:40;4.95;;;1.80;;
18857;SDS011;9558;50.178;8.370;2023-04-28T02:55:27;1.45;;;1.13;;
18857;SDS011;9558;50.178;8.370;2023-04-28T02:58:14;3.72;;;1.55;;
18857;SDS011;9558;50.178;8.370;2023-04-28T03:01:02;1.70;;;1.58;;
18857;SDS011;9558;50.178;8.370;2023-04-28T03:03:48;1.58;;;1.38;;
18857;SDS011;9558;50.178;8.370;2023-04-28T03:06:37;2.47;;;1.42;;
18857;SDS011;9558;50.178;8.370;2023-04-28T03:09:23;3.95;;;1.42;;
18857;SDS011;9558;50.178;8.370;2023-04-28T03:12:10;1.60;;;1.17;;
18857;SDS011;9558;50.178;8.370;2023-04-28T03:14:57;4.65;;;1.80;;
18857;SDS011;9558;50.178;8.370;2023-04-28T03:17:44;5.13;;;1.60;;
18857;SDS011;9558;50.178;8.370;2023-04-28T03:20:31;2.97;;;1.50;;
18857;SDS011;9558;50.178;8.370;2023-04-28T03:23:19;1.50;;;1.40;;
18857;SDS011;9558;50.178;8.370;2023-04-28T03:26:05;7.80;;;1.67;;
18857;SDS011;9558;50.178;8.370;2023-04-28T03:28:52;2.92;;;2.10;;
18857;SDS011;9558;50.178;8.370;2023-04-28T03:31:39;2.35;;;1.42;;
18857;SDS011;9558;50.178;8.370;2023-04-28T03:34:26;2.33;;;1.30;;
18857;SDS011;9558;50.178;8.370;2023-04-28T03:37:13;1.85;;;1.60;;
18857;SDS011;9558;50.178;8.370;2023-04-28T03:40:01;2.33;;;1.65;;
18857;SDS011;9558;50.178;8.370;2023-04-28T03:42:48;5.88;;;2.08;;
18857;SDS011;9558;50.178;8.370;2023-04-28T03:45:34;1.83;;;1.50;;
18857;SDS011;9558;50.178;8.370;2023-04-28T03:48:21;2.47;;;2.00;;
18857;SDS011;9558;50.178;8.370;2023-04-28T03:51:08;2.83;;;1.73;;
18857;SDS011;9558;50.178;8.370;2023-04-28T03:53:55;1.75;;;1.50;;
18857;SDS011;9558;50.178;8.370;2023-04-28T03:56:43;3.63;;;2.13;;
18857;SDS011;9558;50.178;8.370;2023-04-28T03:59:31;2.38;;;1.55;;
18857;SDS011;9558;50.178;8.370;2023-04-28T04:02:17;2.60;;;1.67;;
18857;SDS011;9558;50.178;8.370;2023-04-28T04:05:04;4.13;;;1.83;;
18857;SDS011;9558;50.178;8.370;2023-04-28T04:07:51;2.83;;;1.88;;
18857;SDS011;9558;50.178;8.370;2023-04-28T04:10:38;4.35;;;2.10;;
18857;SDS011;9558;50.178;8.370;2023-04-28T04:13:26;1.95;;;1.65;;
18857;SDS011;9558;50.178;8.370;2023-04-28T04:16:13;1.98;;;1.60;;
18857;SDS011;9558;50.178;8.370;2023-04-28T04:19:00;2.80;;;1.60;;
18857;SDS011;9558;50.178;8.370;2023-04-28T04:21:47;2.38;;;1.60;;
18857;SDS011;9558;50.178;8.370;2023-04-28T04:24:33;2.65;;;1.80;;
18857;SDS011;9558;50.178;8.370;2023-04-28T04:27:20;3.47;;;1.48;;
18857;SDS011;9558;50.178;8.370;2023-04-28T04:30:09;2.78;;;1.77;;
18857;SDS011;9558;50.178;8.370;2023-04-28T04:32:56;3.75;;;2.20;;
18857;SDS011;9558;50.178;8.370;2023-04-28T04:35:44;2.00;;;1.52;;
18857;SDS011;9558;50.178;8.370;2023-04-28T04:38:30;2.95;;;1.70;;
18857;SDS011;9558;50.178;8.370;2023-04-28T04:41:17;3.80;;;2.03;;
18857;SDS011;9558;50.178;8.370;2023-04-28T04:44:05;4.38;;;2.00;;
18857;SDS011;9558;50.178;8.370;2023-04-28T04:46:53;2.72;;;1.95;;
18857;SDS011;9558;50.178;8.370;2023-04-28T04:49:40;5.28;;;1.73;;
18857;SDS011;9558;50.178;8.370;2023-04-28T04:52:27;2.85;;;1.60;;
18857;SDS011;9558;50.178;8.370;2023-04-28T04:55:14;3.88;;;1.90;;
18857;SDS011;9558;50.178;8.370;2023-04-28T04:58:00;4.88;;;1.65;;
18857;SDS011;9558;50.178;8.370;2023-04-28T05:00:47;2.83;;;2.15;;
18857;SDS011;9558;50.178;8.370;2023-04-28T05:03:35;3.70;;;1.92;;
18857;SDS011;9558;50.178;8.370;2023-04-28T05:06:22;2.15;;;1.73;;
18857;SDS011;9558;50.178;8.370;2023-04-28T05:09:09;2.60;;;1.58;;
18857;SDS011;9558;50.178;8.370;2023-04-28T05:11:56;3.08;;;1.70;;
18857;SDS011;9558;50.178;8.370;2023-04-28T05:14:43;6.35;;;2.45;;
18857;SDS011;9558;50.178;8.370;2023-04-28T05:17:30;4.60;;;1.90;;
18857;SDS011;9558;50.178;8.370;2023-04-28T05:20:18;3.75;;;1.65;;
18857;SDS011;9558;50.178;8.370;2023-04-28T05:23:05;4.13;;;2.67;;
18857;SDS011;9558;50.178;8.370;2023-04-28T05:25:52;4.28;;;1.80;;
18857;SDS011;9558;50.178;8.370;2023-04-28T05:28:39;2.47;;;1.88;;
18857;SDS011;9558;50.178;8.370;2023-04-28T05:31:26;2.83;;;1.83;;
18857;SDS011;9558;50.178;8.370;2023-04-28T05:34:13;2.88;;;1.90;;
18857;SDS011;9558;50.178;8.370;2023-04-28T05:37:01;4.45;;;2.45;;
18857;SDS011;9558;50.178;8.370;2023-04-28T05:39:48;5.32;;;2.20;;
18857;SDS011;9558;50.178;8.370;2023-04-28T05:42:34;2.88;;;1.95;;
18857;SDS011;9558;50.178;8.370;2023-04-28T05:45:21;4.82;;;2.88;;
18857;SDS011;9558;50.178;8.370;2023-04-28T05:48:08;5.78;;;2.30;;
18857;SDS011;9558;50.178;8.370;2023-04-28T05:50:54;4.35;;;2.75;;
18857;SDS011;9558;50.178;8.370;2023-04-28T05:53:43;3.83;;;2.83;;
18857;SDS011;9558;50.178;8.370;2023-04-28T05:56:33;7.10;;;2.72;;
18857;SDS011;9558;50.178;8.370;2023-04-28T05:59:20;4.00;;;2.22;;
18857;SDS011;9558;50.178;8.370;2023-04-28T06:02:06;3.65;;;2.53;;
18857;SDS011;9558;50.178;8.370;2023-04-28T06:04:53;4.47;;;2.60;;
18857;SDS011;9558;50.178;8.370;2023-04-28T06:07:40;5.70;;;3.05;;
18857;SDS011;9558;50.178;8.370;2023-04-28T06:10:28;5.57;;;2.95;;
18857;SDS011;9558;50.178;8.370;2023-04-28T06:13:15;12.68;;;3.30;;
18857;SDS011;9558;50.178;8.370;2023-04-28T06:16:02;3.83;;;2.65;;
18857;SDS011;9558;50.178;8.370;2023-04-28T06:18:49;5.15;;;3.17;;
18857;SDS011;9558;50.178;8.370;2023-04-28T06:21:36;9.00;;;3.40;;
18857;SDS011;9558;50.178;8.370;2023-04-28T06:24:23;7.03;;;3.45;;
18857;SDS011;9558;50.178;8.370;2023-04-28T06:27:11;5.82;;;3.42;;
18857;SDS011;9558;50.178;8.370;2023-04-28T06:29:57;15.80;;;4.20;;
18857;SDS011;9558;50.178;8.370;2023-04-28T06:32:44;5.85;;;3.03;;
18857;SDS011;9558;50.178;8.370;2023-04-28T06:35:31;6.63;;;4.00;;
18857;SDS011;9558;50.178;8.370;2023-04-28T06:38:20;6.32;;;3.30;;
18857;SDS011;9558;50.178;8.370;2023-04-28T06:41:10;6.43;;;3.90;;
18857;SDS011;9558;50.178;8.370;2023-04-28T06:43:58;6.20;;;3.65;;
18857;SDS011;9558;50.178;8.370;2023-04-28T06:46:45;6.70;;;3.65;;
18857;SDS011;9558;50.178;8.370;2023-04-28T06:49:31;7.05;;;3.38;;
18857;SDS011;9558;50.178;8.370;2023-04-28T06:52:18;6.40;;;3.55;;
18857;SDS011;9558;50.178;8.370;2023-04-28T06:55:06;6.07;;;3.42;;
18857;SDS011;9558;50.178;8.370;2023-04-28T06:57:54;7.32;;;4.30;;
18857;SDS011;9558;50.178;8.370;2023-04-28T07:00:42;7.10;;;3.00;;
18857;SDS011;9558;50.178;8.370;2023-04-28T07:03:29;14.07;;;3.90;;
18857;SDS011;9558;50.178;8.370;2023-04-28T07:06:16;4.88;;;3.30;;
18857;SDS011;9558;50.178;8.370;2023-04-28T07:09:02;5.43;;;3.42;;
18857;SDS011;9558;50.178;8.370;2023-04-28T07:11:49;6.60;;;4.07;;
18857;SDS011;9558;50.178;8.370;2023-04-28T07:14:36;11.75;;;5.38;;
18857;SDS011;9558;50.178;8.370;2023-04-28T07:17:24;8.48;;;4.22;;
18857;SDS011;9558;50.178;8.370;2023-04-28T07:20:11;7.45;;;3.78;;
18857;SDS011;9558;50.178;8.370;2023-04-28T07:22:58;11.63;;;4.10;;
18857;SDS011;9558;50.178;8.370;2023-04-28T07:25:45;8.35;;;3.65;;
18857;SDS011;9558;50.178;8.370;2023-04-28T07:28:32;9.43;;;3.58;;
18857;SDS011;9558;50.178;8.370;2023-04-28T07:31:19;7.10;;;3.78;;
18857;SDS011;9558;50.178;8.370;2023-04-28T07:34:07;9.75;;;4.43;;
18857;SDS011;9558;50.178;8.370;2023-04-28T07:36:54;9.20;;;5.28;;
18857;SDS011;9558;50.178;8.370;2023-04-28T07:39:42;8.57;;;4.80;;
18857;SDS011;9558;50.178;8.370;2023-04-28T07:42:29;7.30;;;5.20;;
18857;SDS011;9558;50.178;8.370;2023-04-28T07:45:16;10.52;;;4.97;;
18857;SDS011;9558;50.178;8.370;2023-04-28T07:48:02;9.50;;;4.18;;
18857;SDS011;9558;50.178;8.370;2023-04-28T07:50:51;11.40;;;4.47;;
18857;SDS011;9558;50.178;8.370;2023-04-28T07:53:38;8.48;;;4.65;;
18857;SDS011;9558;50.178;8.370;2023-04-28T07:56:25;13.00;;;5.10;;
18857;SDS011;9558;50.178;8.370;2023-04-28T07:59:11;10.00;;;4.63;;
18857;SDS011;9558;50.178;8.370;2023-04-28T08:01:58;6.80;;;4.30;;
18857;SDS011;9558;50.178;8.370;2023-04-28T08:04:45;8.70;;;4.68;;
18857;SDS011;9558;50.178;8.370;2023-04-28T08:07:33;8.85;;;5.30;;
18857;SDS011;9558;50.178;8.370;2023-04-28T08:10:21;8.57;;;4.40;;
18857;SDS011;9558;50.178;8.370;2023-04-28T08:13:08;8.52;;;4.85;;
18857;SDS011;9558;50.178;8.370;2023-04-28T08:15:54;9.13;;;5.10;;
18857;SDS011;9558;50.178;8.370;2023-04-28T08:18:41;13.80;;;5.38;;
18857;SDS011;9558;50.178;8.370;2023-04-28T08:21:28;8.80;;;4.97;;
18857;SDS011;9558;50.178;8.370;2023-04-28T08:24:16;10.13;;;6.18;;
18857;SDS011;9558;50.178;8.370;2023-04-28T08:27:03;10.30;;;5.50;;
18857;SDS011;9558;50.178;8.370;2023-04-28T08:29:50;10.57;;;5.40;;
18857;SDS011;9558;50.178;8.370;2023-04-28T08:32:37;9.65;;;6.18;;
18857;SDS011;9558;50.178;8.370;2023-04-28T08:35:23;12.07;;;6.00;;
18857;SDS011;9558;50.178;8.370;2023-04-28T08:38:10;10.73;;;5.95;;
18857;SDS011;9558;50.178;8.370;2023-04-28T08:41:00;19.23;;;6.55;;
18857;SDS011;9558;50.178;8.370;2023-04-28T08:43:49;13.88;;;6.95;;
18857;SDS011;9558;50.178;8.370;2023-04-28T08:46:37;19.88;;;6.75;;
18857;SDS011;9558;50.178;8.370;2023-04-28T08:49:26;14.90;;;6.45;;
18857;SDS011;9558;50.178;8.370;2023-04-28T08:52:20;17.42;;;7.68;;
18857;SDS011;9558;50.178;8.370;2023-04-28T08:55:08;14.15;;;6.82;;
18857;SDS011;9558;50.178;8.370;2023-04-28T08:57:58;19.77;;;8.32;;
18857;SDS011;9558;50.178;8.370;2023-04-28T09:00:47;18.45;;;7.50;;
18857;SDS011;9558;50.178;8.370;2023-04-28T09:03:33;18.40;;;7.78;;
18857;SDS011;9558;50.178;8.370;2023-04-28T09:06:20;16.75;;;8.32;;
18857;SDS011;9558;50.178;8.370;2023-04-28T09:09:17;23.80;;;8.77;;
18857;SDS011;9558;50.178;8.370;2023-04-28T09:12:05;21.50;;;8.35;;
18857;SDS011;9558;50.178;8.370;2023-04-28T09:14:54;22.25;;;9.07;;
18857;SDS011;9558;50.178;8.370;2023-04-28T09:17:46;15.18;;;8.35;;
18857;SDS011;9558;50.178;8.370;2023-04-28T09:20:35;19.60;;;8.05;;
18857;SDS011;9558;50.178;8.370;2023-04-28T09:23:22;19.88;;;8.15;;
18857;SDS011;9558;50.178;8.370;2023-04-28T09:26:09;17.67;;;8.10;;
18857;SDS011;9558;50.178;8.370;2023-04-28T09:29:10;16.60;;;7.78;;
18857;SDS011;9558;50.178;8.370;2023-04-28T09:32:12;16.67;;;8.10;;
18857;SDS011;9558;50.178;8.370;2023-04-28T09:35:00;18.33;;;7.60;;
18857;SDS011;9558;50.178;8.370;2023-04-28T09:37:52;16.88;;;8.00;;
18857;SDS011;9558;50.178;8.370;2023-04-28T09:40:50;17.83;;;8.55;;
18857;SDS011;9558;50.178;8.370;2023-04-28T09:43:41;17.52;;;7.47;;
18857;SDS011;9558;50.178;8.370;2023-04-28T09:46:28;18.77;;;8.38;;
18857;SDS011;9558;50.178;8.370;2023-04-28T09:49:16;17.88;;;9.13;;
18857;SDS011;9558;50.178;8.370;2023-04-28T09:52:11;16.13;;;7.22;;
18857;SDS011;9558;50.178;8.370;2023-04-28T09:54:58;24.25;;;8.23;;
18857;SDS011;9558;50.178;8.370;2023-04-28T09:57:47;17.15;;;8.05;;
18857;SDS011;9558;50.178;8.370;2023-04-28T10:00:36;17.27;;;8.07;;
18857;SDS011;9558;50.178;8.370;2023-04-28T10:03:25;15.50;;;7.93;;
18857;SDS011;9558;50.178;8.370;2023-04-28T10:06:14;17.30;;;8.00;;
18857;SDS011;9558;50.178;8.370;2023-04-28T10:09:00;18.40;;;7.60;;
18857;SDS011;9558;50.178;8.370;2023-04-28T10:11:48;15.73;;;7.75;;
18857;SDS011;9558;50.178;8.370;2023-04-28T10:14:34;19.05;;;7.88;;
18857;SDS011;9558;50.178;8.370;2023-04-28T10:17:22;17.70;;;8.15;;
18857;SDS011;9558;50.178;8.370;2023-04-28T10:20:12;18.38;;;7.47;;
18857;SDS011;9558;50.178;8.370;2023-04-28T10:23:05;19.38;;;7.95;;
18857;SDS011;9558;50.178;8.370;2023-04-28T10:26:08;20.98;;;8.32;;
18857;SDS011;9558;50.178;8.370;2023-04-28T10:28:57;22.55;;;11.07;;
18857;SDS011;9558;50.178;8.370;2023-04-28T10:38:32;23.00;;;7.57;;
18857;SDS011;9558;50.178;8.370;2023-04-28T10:41:30;20.02;;;9.43;;
18857;SDS011;9558;50.178;8.370;2023-04-28T10:47:29;15.48;;;7.65;;
18857;SDS011;9558;50.178;8.370;2023-04-28T10:51:02;18.45;;;7.60;;
18857;SDS011;9558;50.178;8.370;2023-04-28T10:54:13;16.50;;;7.45;;
18857;SDS011;9558;50.178;8.370;2023-04-28T10:57:17;16.15;;;7.45;;
18857;SDS011;9558;50.178;8.370;2023-04-28T11:00:25;18.02;;;7.90;;
18857;SDS011;9558;50.178;8.370;2023-04-28T11:06:31;14.90;;;7.25;;
18857;SDS011;9558;50.178;8.370;2023-04-28T11:12:39;14.18;;;8.10;;
18857;SDS011;9558;50.178;8.370;2023-04-28T11:16:05;14.20;;;8.15;;
18857;SDS011;9558;50.178;8.370;2023-04-28T11:18:59;14.15;;;8.07;;
18857;SDS011;9558;50.178;8.370;2023-04-28T11:21:50;19.05;;;8.70;;
18857;SDS011;9558;50.178;8.370;2023-04-28T11:24:39;14.80;;;8.18;;
18857;SDS011;9558;50.178;8.370;2023-04-28T11:27:27;22.35;;;8.13;;
18857;SDS011;9558;50.178;8.370;2023-04-28T11:30:18;17.92;;;8.27;;
18857;SDS011;9558;50.178;8.370;2023-04-28T11:33:06;16.30;;;9.23;;
18857;SDS011;9558;50.178;8.370;2023-04-28T11:35:54;16.88;;;8.25;;
18857;SDS011;9558;50.178;8.370;2023-04-28T11:38:41;15.25;;;8.07;;
18857;SDS011;9558;50.178;8.370;2023-04-28T11:41:29;16.25;;;8.95;;
18857;SDS011;9558;50.178;8.370;2023-04-28T11:44:19;12.38;;;6.75;;
18857;SDS011;9558;50.178;8.370;2023-04-28T11:47:07;13.75;;;7.07;;
18857;SDS011;9558;50.178;8.370;2023-04-28T11:49:54;14.07;;;6.72;;
18857;SDS011;9558;50.178;8.370;2023-04-28T11:52:47;9.50;;;5.90;;
18857;SDS011;9558;50.178;8.370;2023-04-28T11:55:34;13.18;;;7.45;;
18857;SDS011;9558;50.178;8.370;2023-04-28T11:58:21;13.27;;;6.28;;
18857;SDS011;9558;50.178;8.370;2023-04-28T12:01:11;15.73;;;7.43;;
18857;SDS011;9558;50.178;8.370;2023-04-28T12:03:59;13.25;;;7.50;;
18857;SDS011;9558;50.178;8.370;2023-04-28T12:06:46;12.77;;;7.38;;
18857;SDS011;9558;50.178;8.370;2023-04-28T12:09:33;14.93;;;8.55;;
18857;SDS011;9558;50.178;8.370;2023-04-28T12:12:26;12.20;;;7.97;;
18857;SDS011;9558;50.178;8.370;2023-04-28T12:15:14;12.13;;;6.88;;
18857;SDS011;9558;50.178;8.370;2023-04-28T12:18:09;13.75;;;6.68;;
18857;SDS011;9558;50.178;8.370;2023-04-28T12:20:57;11.93;;;7.00;;
18857;SDS011;9558;50.178;8.370;2023-04-28T12:23:43;11.20;;;7.10;;
18857;SDS011;9558;50.178;8.370;2023-04-28T12:26:30;11.30;;;6.63;;
18857;SDS011;9558;50.178;8.370;2023-04-28T12:29:36;10.73;;;6.32;;
18857;SDS011;9558;50.178;8.370;2023-04-28T12:32:36;10.60;;;6.50;;
18857;SDS011;9558;50.178;8.370;2023-04-28T12:35:25;13.77;;;6.65;;
18857;SDS011;9558;50.178;8.370;2023-04-28T12:38:12;15.45;;;8.25;;
18857;SDS011;9558;50.178;8.370;2023-04-28T12:41:00;12.35;;;6.60;;
18857;SDS011;9558;50.178;8.370;2023-04-28T12:43:47;9.55;;;5.97;;
18857;SDS011;9558;50.178;8.370;2023-04-28T12:46:33;9.18;;;5.75;;
18857;SDS011;9558;50.178;8.370;2023-04-28T12:49:21;12.73;;;7.10;;
18857;SDS011;9558;50.178;8.370;2023-04-28T12:52:09;12.40;;;6.93;;
18857;SDS011;9558;50.178;8.370;2023-04-28T12:54:56;13.20;;;6.68;;
18857;SDS011;9558;50.178;8.370;2023-04-28T12:57:43;11.38;;;6.50;;
18857;SDS011;9558;50.178;8.370;2023-04-28T13:00:30;10.23;;;6.25;;
18857;SDS011;9558;50.178;8.370;2023-04-28T13:03:17;12.40;;;5.95;;
18857;SDS011;9558;50.178;8.370;2023-04-28T13:06:05;9.20;;;6.15;;
18857;SDS011;9558;50.178;8.370;2023-04-28T13:08:54;10.25;;;5.63;;
18857;SDS011;9558;50.178;8.370;2023-04-28T13:11:41;8.15;;;5.55;;
18857;SDS011;9558;50.178;8.370;2023-04-28T13:14:28;9.77;;;5.75;;
18857;SDS011;9558;50.178;8.370;2023-04-28T13:17:15;10.88;;;6.35;;
18857;SDS011;9558;50.178;8.370;2023-04-28T13:20:02;10.80;;;6.60;;
18857;SDS011;9558;50.178;8.370;2023-04-28T13:22:50;11.07;;;6.68;;
18857;SDS011;9558;50.178;8.370;2023-04-28T13:25:38;8.60;;;4.70;;
18857;SDS011;9558;50.178;8.370;2023-04-28T13:28:25;7.53;;;4.80;;
18857;SDS011;9558;50.178;8.370;2023-04-28T13:31:13;8.18;;;4.55;;
18857;SDS011;9558;50.178;8.370;2023-04-28T13:34:00;7.45;;;5.03;;
18857;SDS011;9558;50.178;8.370;2023-04-28T13:36:48;7.63;;;5.10;;
18857;SDS011;9558;50.178;8.370;2023-04-28T13:39:35;9.20;;;5.43;;
18857;SDS011;9558;50.178;8.370;2023-04-28T13:42:23;8.52;;;5.80;;
18857;SDS011;9558;50.178;8.370;2023-04-28T13:45:10;9.25;;;5.95;;
18857;SDS011;9558;50.178;8.370;2023-04-28T13:47:57;9.48;;;5.45;;
18857;SDS011;9558;50.178;8.370;2023-04-28T13:50:44;9.63;;;5.82;;
18857;SDS011;9558;50.178;8.370;2023-04-28T13:53:31;11.65;;;6.60;;
18857;SDS011;9558;50.178;8.370;2023-04-28T13:56:17;13.82;;;7.45;;
18857;SDS011;9558;50.178;8.370;2023-04-28T13:59:06;7.32;;;4.97;;
18857;SDS011;9558;50.178;8.370;2023-04-28T14:01:53;6.07;;;4.13;;
18857;SDS011;9558;50.178;8.370;2023-04-28T14:04:40;6.90;;;4.22;;
18857;SDS011;9558;50.178;8.370;2023-04-28T14:07:32;7.75;;;4.55;;
18857;SDS011;9558;50.178;8.370;2023-04-28T14:10:19;7.95;;;5.18;;
18857;SDS011;9558;50.178;8.370;2023-04-28T14:13:06;10.32;;;5.57;;
18857;SDS011;9558;50.178;8.370;2023-04-28T14:15:54;10.82;;;5.35;;
18857;SDS011;9558;50.178;8.370;2023-04-28T14:18:40;7.88;;;4.78;;
18857;SDS011;9558;50.178;8.370;2023-04-28T14:21:27;9.60;;;5.03;;
18857;SDS011;9558;50.178;8.370;2023-04-28T14:24:14;9.25;;;5.47;;
18857;SDS011;9558;50.178;8.370;2023-04-28T14:27:01;10.48;;;5.78;;
18857;SDS011;9558;50.178;8.370;2023-04-28T14:29:47;9.52;;;5.15;;
18857;SDS011;9558;50.178;8.370;2023-04-28T14:32:36;8.75;;;4.97;;
18857;SDS011;9558;50.178;8.370;2023-04-28T14:35:23;8.05;;;5.03;;
18857;SDS011;9558;50.178;8.370;2023-04-28T14:38:09;7.30;;;5.28;;
18857;SDS011;9558;50.178;8.370;2023-04-28T14:40:58;8.85;;;5.05;;
18857;SDS011;9558;50.178;8.370;2023-04-28T14:43:45;7.15;;;4.40;;
18857;SDS011;9558;50.178;8.370;2023-04-28T14:46:32;7.35;;;4.47;;
18857;SDS011;9558;50.178;8.370;2023-04-28T14:49:20;6.03;;;4.30;;
18857;SDS011;9558;50.178;8.370;2023-04-28T14:52:07;6.57;;;4.22;;
18857;SDS011;9558;50.178;8.370;2023-04-28T14:54:55;5.05;;;3.75;;
18857;SDS011;9558;50.178;8.370;2023-04-28T14:57:42;5.25;;;3.45;;
18857;SDS011;9558;50.178;8.370;2023-04-28T15:00:29;7.82;;;4.03;;
18857;SDS011;9558;50.178;8.370;2023-04-28T15:03:16;5.05;;;3.60;;
18857;SDS011;9558;50.178;8.370;2023-04-28T15:06:04;4.80;;;3.47;;
18857;SDS011;9558;50.178;8.370;2023-04-28T15:08:51;4.53;;;3.30;;
18857;SDS011;9558;50.178;8.370;2023-04-28T15:11:38;4.38;;;3.28;;
18857;SDS011;9558;50.178;8.370;2023-04-28T15:14:25;4.40;;;2.92;;
18857;SDS011;9558;50.178;8.370;2023-04-28T15:17:12;5.07;;;3.50;;
18857;SDS011;9558;50.178;8.370;2023-04-28T15:19:58;3.67;;;2.60;;
18857;SDS011;9558;50.178;8.370;2023-04-28T15:22:46;4.88;;;3.17;;
18857;SDS011;9558;50.178;8.370;2023-04-28T15:25:33;5.18;;;3.40;;
18857;SDS011;9558;50.178;8.370;2023-04-28T15:28:20;4.25;;;3.10;;
18857;SDS011;9558;50.178;8.370;2023-04-28T15:31:07;7.95;;;3.50;;
18857;SDS011;9558;50.178;8.370;2023-04-28T15:33:54;5.80;;;3.22;;
18857;SDS011;9558;50.178;8.370;2023-04-28T15:36:41;4.15;;;2.85;;
18857;SDS011;9558;50.178;8.370;2023-04-28T15:39:30;5.28;;;3.42;;
18857;SDS011;9558;50.178;8.370;2023-04-28T15:42:17;3.58;;;2.83;;
18857;SDS011;9558;50.178;8.370;2023-04-28T15:45:04;5.50;;;3.55;;
18857;SDS011;9558;50.178;8.370;2023-04-28T15:47:52;3.75;;;2.80;;
18857;SDS011;9558;50.178;8.370;2023-04-28T15:50:39;5.63;;;3.42;;
18857;SDS011;9558;50.178;8.370;2023-04-28T15:53:26;4.90;;;3.10;;
18857;SDS011;9558;50.178;8.370;2023-04-28T15:56:14;3.60;;;2.88;;
18857;SDS011;9558;50.178;8.370;2023-04-28T15:59:00;5.57;;;3.40;;
18857;SDS011;9558;50.178;8.370;2023-04-28T16:01:48;6.38;;;3.33;;
18857;SDS011;9558;50.178;8.370;2023-04-28T16:04:35;5.97;;;3.83;;
18857;SDS011;9558;50.178;8.370;2023-04-28T16:07:22;7.78;;;3.35;;
18857;SDS011;9558;50.178;8.370;2023-04-28T16:10:10;3.75;;;2.50;;
18857;SDS011;9558;50.178;8.370;2023-04-28T16:12:59;4.20;;;3.00;;
18857;SDS011;9558;50.178;8.370;2023-04-28T16:15:46;3.63;;;2.63;;
18857;SDS011;9558;50.178;8.370;2023-04-28T16:18:35;4.57;;;2.67;;
18857;SDS011;9558;50.178;8.370;2023-04-28T16:21:22;4.57;;;3.42;;
18857;SDS011;9558;50.178;8.370;2023-04-28T16:24:09;7.75;;;3.65;;
18857;SDS011;9558;50.178;8.370;2023-04-28T16:26:57;5.93;;;3.80;;
18857;SDS011;9558;50.178;8.370;2023-04-28T16:29:45;5.65;;;3.05;;
18857;SDS011;9558;50.178;8.370;2023-04-28T16:32:32;4.78;;;3.13;;
18857;SDS011;9558;50.178;8.370;2023-04-28T16:35:20;4.00;;;3.35;;
18857;SDS011;9558;50.178;8.370;2023-04-28T16:38:07;5.15;;;3.20;;
18857;SDS011;9558;50.178;8.370;2023-04-28T16:40:56;5.20;;;3.63;;
18857;SDS011;9558;50.178;8.370;2023-04-28T16:43:42;6.95;;;3.65;;
18857;SDS011;9558;50.178;8.370;2023-04-28T16:46:30;6.43;;;3.63;;
18857;SDS011;9558;50.178;8.370;2023-04-28T16:49:17;7.32;;;3.83;;
18857;SDS011;9558;50.178;8.370;2023-04-28T16:52:04;4.82;;;3.10;;
18857;SDS011;9558;50.178;8.370;2023-04-28T16:54:51;5.22;;;3.25;;
18857;SDS011;9558;50.178;8.370;2023-04-28T16:57:37;4.53;;;3.38;;
18857;SDS011;9558;50.178;8.370;2023-04-28T17:00:24;4.75;;;3.33;;
18857;SDS011;9558;50.178;8.370;2023-04-28T17:03:12;5.68;;;3.38;;
18857;SDS011;9558;50.178;8.370;2023-04-28T17:05:59;5.20;;;3.70;;
18857;SDS011;9558;50.178;8.370;2023-04-28T17:08:46;7.20;;;4.07;;
18857;SDS011;9558;50.178;8.370;2023-04-28T17:11:33;6.50;;;3.85;;
18857;SDS011;9558;50.178;8.370;2023-04-28T17:14:21;6.35;;;3.72;;
18857;SDS011;9558;50.178;8.370;2023-04-28T17:17:08;5.53;;;3.55;;
18857;SDS011;9558;50.178;8.370;2023-04-28T17:19:56;5.55;;;4.00;;
18857;SDS011;9558;50.178;8.370;2023-04-28T17:22:46;7.25;;;3.75;;